Terminal Aerodrome Forecast
Issued by NWS Wichita, KS

Home | Current Version | Previous Version | Text Only | Print | Product List | Glossary Off
Versions: 1 2 3 4 5 6 7 8 9 10 11 12 13 14 15 16 17 18 19 20 21 22

969
FTUS43 KICT 171133
TAFICT
TAF
KICT 171133Z 1712/1812 19008KT P6SM SCT025 OVC070
      TEMPO 1712/1714 BKN025
     FM171400 24010KT P6SM BKN120
     FM171700 31020G30KT P6SM SKC
     FM172300 36012KT P6SM SKC
     FM180200 VRB05KT P6SM SKC
     FM181000 16010KT P6SM FEW250=

USA.gov is the U.S. government's official web portal to all federal, state and local government web resources and services.